createdAt,value
2022-12-12T00:01:20.228Z,16.40
2022-12-12T00:03:48.085Z,17.67
2022-12-12T00:06:17.335Z,17.07
2022-12-12T00:08:45.126Z,18.57
2022-12-12T00:11:13.113Z,15.87
2022-12-12T00:13:41.100Z,16.73
2022-12-12T00:16:10.078Z,16.07
2022-12-12T00:18:38.443Z,16.87
2022-12-12T00:21:08.072Z,17.67
2022-12-12T00:23:37.424Z,16.27
2022-12-12T00:26:08.079Z,17.60
2022-12-12T00:28:36.234Z,16.43
2022-12-12T00:31:04.224Z,16.73
2022-12-12T00:33:32.119Z,17.90
2022-12-12T00:36:00.305Z,17.57
2022-12-12T00:38:28.129Z,17.13
2022-12-12T00:40:58.956Z,17.00
2022-12-12T00:43:27.292Z,16.57
2022-12-12T00:45:55.198Z,15.90
2022-12-12T00:48:23.045Z,16.90
2022-12-12T00:50:51.305Z,16.93
2022-12-12T00:53:19.188Z,16.33
2022-12-12T00:55:47.303Z,17.70
2022-12-12T00:58:16.427Z,17.47
2022-12-12T01:00:44.238Z,17.17
2022-12-12T01:03:12.039Z,16.87
2022-12-12T01:05:39.998Z,18.43
2022-12-12T01:08:07.889Z,17.30
2022-12-12T01:10:35.869Z,17.40
2022-12-12T01:13:03.935Z,17.37
2022-12-12T01:15:33.731Z,17.10
2022-12-12T01:18:01.750Z,17.87
2022-12-12T01:20:30.440Z,18.20
2022-12-12T01:22:58.268Z,16.63
2022-12-12T01:25:26.451Z,18.87
2022-12-12T01:27:54.347Z,17.87
2022-12-12T01:30:23.999Z,15.83
2022-12-12T01:32:53.256Z,16.27
2022-12-12T01:35:21.164Z,17.17
2022-12-12T01:37:49.460Z,17.63
2022-12-12T01:40:21.073Z,16.60
2022-12-12T01:42:49.380Z,17.30
2022-12-12T01:45:54.755Z,16.73
2022-12-12T01:48:26.775Z,15.97
2022-12-12T01:50:55.388Z,16.43
2022-12-12T01:53:25.514Z,15.27
2022-12-12T01:55:53.506Z,16.97
2022-12-12T01:58:21.567Z,16.70
2022-12-12T02:00:49.492Z,17.87
2022-12-12T02:03:17.394Z,18.70
2022-12-12T02:05:50.423Z,18.83
2022-12-12T02:08:19.729Z,17.40
2022-12-12T02:10:47.599Z,17.27
2022-12-12T02:13:19.048Z,17.60
2022-12-12T02:15:53.242Z,16.93
2022-12-12T02:18:23.826Z,17.77
2022-12-12T02:21:02.748Z,16.07
2022-12-12T02:24:06.752Z,16.60
2022-12-12T02:26:51.455Z,17.10
2022-12-12T02:29:56.033Z,17.27
2022-12-12T02:32:30.541Z,17.27
2022-12-12T02:35:05.681Z,17.23
2022-12-12T02:37:40.560Z,16.10
2022-12-12T02:40:14.405Z,17.37
2022-12-12T02:42:45.849Z,17.77
2022-12-12T02:45:18.778Z,17.07
2022-12-12T02:47:49.609Z,18.57
2022-12-12T02:50:20.074Z,17.33
2022-12-12T02:52:48.997Z,16.27
2022-12-12T02:55:17.320Z,16.80
2022-12-12T02:57:45.320Z,17.40
2022-12-12T03:00:15.211Z,17.00
2022-12-12T03:03:26.666Z,16.87
2022-12-12T03:06:24.642Z,17.57
2022-12-12T03:09:00.756Z,19.27
2022-12-12T03:11:35.180Z,17.97
2022-12-12T03:14:10.067Z,17.17
2022-12-12T03:16:40.686Z,18.53
2022-12-12T03:19:12.791Z,18.30
2022-12-12T03:21:47.518Z,17.20
2022-12-12T03:24:22.041Z,18.30
2022-12-12T03:26:53.287Z,16.63
2022-12-12T03:29:25.548Z,17.50
2022-12-12T03:31:56.079Z,17.87
2022-12-12T03:34:26.603Z,17.90
2022-12-12T03:36:57.424Z,16.90
2022-12-12T03:39:29.622Z,19.20
2022-12-12T03:42:01.029Z,18.43
2022-12-12T03:44:36.828Z,18.23
2022-12-12T03:47:13.865Z,17.20
2022-12-12T03:49:44.540Z,19.17
2022-12-12T03:52:18.160Z,18.10
2022-12-12T03:54:49.369Z,18.40
2022-12-12T03:57:20.238Z,19.33
2022-12-12T03:59:53.159Z,19.50
2022-12-12T04:02:23.673Z,18.40
2022-12-12T04:07:39.167Z,19.27
2022-12-12T04:10:25.449Z,18.90
2022-12-12T04:13:03.426Z,17.47
2022-12-12T04:15:47.264Z,17.33
2022-12-12T04:18:20.351Z,17.73
2022-12-12T04:21:15.215Z,19.90
2022-12-12T04:23:55.272Z,18.23
2022-12-12T04:26:41.880Z,18.60
2022-12-12T04:29:18.335Z,17.80
2022-12-12T04:31:50.908Z,18.33
2022-12-12T04:34:24.993Z,19.17
2022-12-12T04:36:53.576Z,18.90
2022-12-12T04:39:24.312Z,18.20
2022-12-12T04:41:53.774Z,18.07
2022-12-12T04:44:23.268Z,17.73
2022-12-12T04:46:53.849Z,18.40
2022-12-12T04:49:24.892Z,18.87
2022-12-12T04:51:55.295Z,17.57
2022-12-12T04:54:28.868Z,17.47
2022-12-12T04:57:00.076Z,19.50
2022-12-12T04:59:28.191Z,18.07
2022-12-12T05:02:00.655Z,18.87
2022-12-12T05:04:32.060Z,18.97
2022-12-12T05:07:03.687Z,18.40
2022-12-12T05:09:33.216Z,18.07
2022-12-12T05:12:01.073Z,19.27
2022-12-12T05:14:31.004Z,17.90
2022-12-12T05:17:03.100Z,17.80
2022-12-12T05:19:31.061Z,18.17
2022-12-12T05:21:58.853Z,18.43
2022-12-12T05:24:30.741Z,17.20
2022-12-12T05:27:00.224Z,18.60
2022-12-12T05:29:28.084Z,17.40
2022-12-12T05:31:56.224Z,19.00
2022-12-12T05:34:24.103Z,18.23
2022-12-12T05:36:52.007Z,18.37
2022-12-12T05:39:19.807Z,18.13
2022-12-12T05:41:47.743Z,17.33
2022-12-12T05:44:16.983Z,17.53
2022-12-12T05:46:45.608Z,17.60
2022-12-12T05:49:13.500Z,17.23
2022-12-12T05:51:41.819Z,17.63
2022-12-12T05:54:09.671Z,17.73
2022-12-12T05:56:37.481Z,16.57
2022-12-12T05:59:05.586Z,17.70
2022-12-12T06:01:35.235Z,17.73
2022-12-12T06:04:03.406Z,17.80
2022-12-12T06:06:31.587Z,18.07
2022-12-12T06:08:59.335Z,19.80
2022-12-12T06:11:27.189Z,17.60
2022-12-12T06:13:54.992Z,17.03
2022-12-12T06:16:22.984Z,17.57
2022-12-12T06:18:56.177Z,17.43
2022-12-12T06:21:24.294Z,18.63
2022-12-12T06:23:52.505Z,17.80
2022-12-12T06:26:21.751Z,16.90
2022-12-12T06:28:49.942Z,17.87
2022-12-12T06:31:18.310Z,17.30
2022-12-12T06:33:46.436Z,16.33
2022-12-12T06:36:23.693Z,16.63
2022-12-12T06:38:51.986Z,17.47
2022-12-12T06:41:20.543Z,17.43
2022-12-12T06:43:48.653Z,16.60
2022-12-12T06:46:18.836Z,17.00
2022-12-12T06:48:47.912Z,17.33
2022-12-12T06:51:19.283Z,19.17
2022-12-12T06:53:47.196Z,17.10
2022-12-12T06:56:16.842Z,17.63
2022-12-12T06:58:44.850Z,17.23
2022-12-12T07:01:13.707Z,17.17
2022-12-12T07:03:41.745Z,18.13
2022-12-12T07:06:10.157Z,17.13
2022-12-12T07:08:39.552Z,16.73
2022-12-12T07:11:08.998Z,17.63
2022-12-12T07:13:36.859Z,17.30
2022-12-12T07:16:05.093Z,17.70
2022-12-12T07:18:33.104Z,17.40
2022-12-12T07:21:00.868Z,17.50
2022-12-12T07:23:28.802Z,18.33
2022-12-12T07:25:58.044Z,17.43
2022-12-12T07:28:25.993Z,17.50
2022-12-12T07:30:53.940Z,18.10
2022-12-12T07:33:21.952Z,17.73
2022-12-12T07:35:49.867Z,18.73
2022-12-12T07:38:17.782Z,17.43
2022-12-12T07:40:45.692Z,17.73
2022-12-12T07:43:14.910Z,18.03
2022-12-12T07:45:45.055Z,17.67
2022-12-12T07:48:12.906Z,17.17
2022-12-12T07:50:41.268Z,17.13
2022-12-12T07:53:09.333Z,17.87
2022-12-12T07:55:40.552Z,16.80
2022-12-12T07:58:08.389Z,17.50
2022-12-12T08:00:37.608Z,17.87
2022-12-12T08:03:05.478Z,16.60
2022-12-12T08:05:33.392Z,18.73
2022-12-12T08:08:01.348Z,17.17
2022-12-12T08:10:29.255Z,17.93
2022-12-12T08:12:57.057Z,16.70
2022-12-12T08:15:24.930Z,16.73
2022-12-12T08:17:54.166Z,17.37
2022-12-12T08:20:22.991Z,17.13
2022-12-12T08:22:50.904Z,17.83
2022-12-12T08:25:18.818Z,18.53
2022-12-12T08:27:46.703Z,17.43
2022-12-12T08:30:14.962Z,17.83
2022-12-12T08:32:42.851Z,18.07
2022-12-12T08:35:12.546Z,18.20
2022-12-12T08:37:40.603Z,17.20
2022-12-12T08:40:09.623Z,18.20
2022-12-12T08:42:37.514Z,18.50
2022-12-12T08:45:06.199Z,17.70
2022-12-12T08:47:34.342Z,18.07
2022-12-12T08:50:02.227Z,18.60
2022-12-12T08:52:31.567Z,17.53
2022-12-12T08:54:59.469Z,17.57
2022-12-12T08:57:27.380Z,17.87
2022-12-12T08:59:55.300Z,17.93
2022-12-12T09:02:23.441Z,17.97
2022-12-12T09:04:51.442Z,16.87
2022-12-12T09:07:19.277Z,17.37
2022-12-12T09:09:48.505Z,20.03
2022-12-12T09:12:16.569Z,17.57
2022-12-12T09:14:44.496Z,16.47
2022-12-12T09:17:12.420Z,17.37
2022-12-12T09:19:41.068Z,17.80
2022-12-12T09:22:11.295Z,17.30
2022-12-12T09:24:39.436Z,16.37
2022-12-12T09:27:08.846Z,18.27
2022-12-12T09:29:36.707Z,18.57
2022-12-12T09:32:06.558Z,17.47
2022-12-12T09:34:34.435Z,18.27
2022-12-12T09:37:02.821Z,16.57
2022-12-12T09:39:30.822Z,17.73
2022-12-12T09:41:59.061Z,17.97
2022-12-12T09:44:28.692Z,17.37
2022-12-12T09:47:00.342Z,17.83
2022-12-12T09:49:41.536Z,17.43
2022-12-12T09:52:14.199Z,18.50
2022-12-12T09:54:42.056Z,18.53
2022-12-12T09:57:21.202Z,19.33
2022-12-12T09:59:52.991Z,18.83
2022-12-12T10:02:41.888Z,17.63
2022-12-12T10:05:20.112Z,17.97
2022-12-12T10:07:55.574Z,17.60
2022-12-12T10:10:25.965Z,18.23
2022-12-12T10:12:54.866Z,17.93
2022-12-12T10:15:30.991Z,18.17
2022-12-12T10:18:00.759Z,19.57
2022-12-12T10:20:30.244Z,18.60
2022-12-12T10:23:02.231Z,18.40
2022-12-12T10:25:39.246Z,17.73
2022-12-12T10:28:11.730Z,19.30
2022-12-12T10:30:52.811Z,19.07
2022-12-12T10:33:28.590Z,18.50
2022-12-12T10:36:02.071Z,17.60
2022-12-12T10:38:39.921Z,17.57
2022-12-12T10:41:13.141Z,16.43
2022-12-12T10:43:46.055Z,16.90
2022-12-12T10:46:24.862Z,17.90
2022-12-12T10:48:52.991Z,16.77
2022-12-12T10:51:22.731Z,16.80
2022-12-12T10:53:50.577Z,16.67
2022-12-12T10:56:22.561Z,16.67
2022-12-12T10:58:54.876Z,16.37
2022-12-12T11:01:52.477Z,16.30
2022-12-12T11:04:15.769Z,17.23
2022-12-12T11:06:47.106Z,16.07
2022-12-12T11:09:19.254Z,15.87
2022-12-12T11:11:58.280Z,16.67
2022-12-12T11:14:30.769Z,15.53
2022-12-12T11:16:59.951Z,14.90
2022-12-12T11:19:29.491Z,14.67
2022-12-12T11:22:04.476Z,15.27
2022-12-12T11:24:33.532Z,14.67
2022-12-12T11:27:03.402Z,17.27
2022-12-12T11:29:38.099Z,14.07
2022-12-12T11:32:13.588Z,16.57
2022-12-12T11:34:46.174Z,15.63
2022-12-12T11:37:16.815Z,16.43
2022-12-12T11:39:47.044Z,16.67
2022-12-12T11:42:21.464Z,15.20
2022-12-12T11:44:58.840Z,16.10
2022-12-12T11:47:29.678Z,15.90
2022-12-12T11:49:59.363Z,15.13
2022-12-12T11:52:30.596Z,16.47
2022-12-12T11:54:59.055Z,14.20
2022-12-12T11:57:52.652Z,13.40
2022-12-12T12:00:21.633Z,15.20
2022-12-12T12:03:12.517Z,14.70
2022-12-12T12:05:47.906Z,14.63
2022-12-12T12:08:28.818Z,13.87
2022-12-12T12:11:06.282Z,14.77
2022-12-12T12:13:48.200Z,14.40
2022-12-12T12:16:21.569Z,12.73
2022-12-12T12:18:58.431Z,12.97
2022-12-12T12:21:35.576Z,13.70
2022-12-12T12:24:20.783Z,13.83
2022-12-12T12:26:55.107Z,13.27
2022-12-12T12:29:40.594Z,12.67
2022-12-12T12:32:13.866Z,12.53
2022-12-12T12:34:52.598Z,13.27
2022-12-12T12:37:32.488Z,13.23
2022-12-12T12:40:12.659Z,14.83
2022-12-12T12:42:51.558Z,12.20
2022-12-12T12:45:24.456Z,12.97
2022-12-12T12:47:55.127Z,12.97
2022-12-12T12:50:26.563Z,11.77
2022-12-12T12:52:57.918Z,12.70
2022-12-12T12:55:30.126Z,12.77
2022-12-12T12:57:57.978Z,12.93
2022-12-12T13:00:30.090Z,12.27
2022-12-12T13:03:02.126Z,13.23
2022-12-12T13:05:34.884Z,12.03
2022-12-12T13:08:10.023Z,13.33
2022-12-12T13:10:41.412Z,12.37
2022-12-12T13:13:13.494Z,12.73
2022-12-12T13:15:43.403Z,13.53
2022-12-12T13:18:13.604Z,13.53
2022-12-12T13:20:45.824Z,13.63
2022-12-12T13:23:21.498Z,12.80
2022-12-12T13:25:54.232Z,12.70
2022-12-12T13:28:25.199Z,13.57
2022-12-12T13:31:12.581Z,13.63
2022-12-12T13:33:45.039Z,13.37
2022-12-12T13:36:18.412Z,14.17
2022-12-12T13:38:49.535Z,14.10
2022-12-12T13:41:17.504Z,13.60
2022-12-12T13:43:47.751Z,14.00
2022-12-12T13:46:36.646Z,13.20
2022-12-12T13:49:16.648Z,11.97
2022-12-12T13:51:46.456Z,11.70
2022-12-12T13:54:54.667Z,11.90
2022-12-12T13:57:27.668Z,11.47
2022-12-12T14:00:29.359Z,12.07
2022-12-12T14:03:02.043Z,12.03
2022-12-12T14:05:32.036Z,11.03
2022-12-12T14:08:05.810Z,11.17
2022-12-12T14:10:36.775Z,11.50
2022-12-12T14:13:19.607Z,12.23
2022-12-12T14:15:48.394Z,12.43
2022-12-12T14:18:24.719Z,11.53
2022-12-12T14:21:00.339Z,11.67
2022-12-12T14:23:32.148Z,11.60
2022-12-12T14:26:00.728Z,11.60
2022-12-12T14:28:29.536Z,11.93
2022-12-12T14:31:07.167Z,13.13
2022-12-12T14:33:53.704Z,12.87
2022-12-12T14:36:56.560Z,11.67
2022-12-12T14:39:45.332Z,11.60
2022-12-12T14:42:23.008Z,10.50
2022-12-12T14:44:51.183Z,10.97
2022-12-12T14:47:19.395Z,12.30
2022-12-12T14:49:47.270Z,10.27
2022-12-12T14:52:18.129Z,10.67
2022-12-12T14:54:47.481Z,11.20
2022-12-12T14:57:20.709Z,11.13
2022-12-12T14:59:49.115Z,10.90
2022-12-12T15:02:21.816Z,12.83
2022-12-12T15:04:52.104Z,14.90
2022-12-12T15:07:25.849Z,12.70
2022-12-12T15:09:55.145Z,13.00
2022-12-12T15:12:25.358Z,11.87
2022-12-12T15:14:55.751Z,13.77
2022-12-12T15:17:27.558Z,13.47
2022-12-12T15:19:57.474Z,14.50
2022-12-12T15:22:27.686Z,15.23
2022-12-12T15:24:58.990Z,16.60
2022-12-12T15:27:30.578Z,16.07
2022-12-12T15:29:58.918Z,16.97
2022-12-12T15:32:28.678Z,20.60
2022-12-12T15:35:03.169Z,17.63
2022-12-12T15:37:32.762Z,15.50
2022-12-12T15:40:24.379Z,14.50
2022-12-12T15:42:55.526Z,14.80
2022-12-12T15:45:27.444Z,14.97
2022-12-12T15:47:56.564Z,15.93
2022-12-12T15:50:27.117Z,16.60
2022-12-12T15:53:05.577Z,14.53
2022-12-12T15:55:35.859Z,17.33
2022-12-12T15:58:03.956Z,15.93
2022-12-12T16:00:34.877Z,16.73
2022-12-12T16:03:20.653Z,18.10
2022-12-12T16:06:03.041Z,15.73
2022-12-12T16:08:48.222Z,15.57
2022-12-12T16:11:42.736Z,15.93
2022-12-12T16:14:26.592Z,16.97
2022-12-12T16:16:58.588Z,16.90
2022-12-12T16:19:41.719Z,16.90
2022-12-12T16:22:16.755Z,16.13
2022-12-12T16:24:50.637Z,17.27
2022-12-12T16:27:19.917Z,16.90
2022-12-12T16:29:47.986Z,16.90
2022-12-12T16:32:17.911Z,16.97
2022-12-12T16:34:46.685Z,20.37
2022-12-12T16:37:15.667Z,19.03
2022-12-12T16:39:43.850Z,16.50
2022-12-12T16:42:14.435Z,17.97
2022-12-12T16:44:43.630Z,17.53
2022-12-12T16:47:15.915Z,19.13
2022-12-12T16:49:43.817Z,18.63
2022-12-12T16:52:13.066Z,18.30
2022-12-12T16:54:41.555Z,17.90
2022-12-12T16:57:09.937Z,20.23
2022-12-12T16:59:38.284Z,19.13
2022-12-12T17:02:18.048Z,17.10
2022-12-12T17:04:45.825Z,18.53
2022-12-12T17:07:13.937Z,19.37
2022-12-12T17:09:42.076Z,18.93
2022-12-12T17:12:11.742Z,19.77
2022-12-12T17:14:39.874Z,19.30
2022-12-12T17:17:09.129Z,19.77
2022-12-12T17:19:36.973Z,20.77
2022-12-12T17:22:04.856Z,21.10
2022-12-12T17:24:32.843Z,20.43
2022-12-12T17:27:00.635Z,18.73
2022-12-12T17:29:28.419Z,20.00
2022-12-12T17:31:56.343Z,18.63
2022-12-12T17:34:25.540Z,18.73
2022-12-12T17:36:53.411Z,19.27
2022-12-12T17:39:22.786Z,19.00
2022-12-12T17:41:50.921Z,19.03
2022-12-12T17:44:18.694Z,19.40
2022-12-12T17:46:46.560Z,19.03
2022-12-12T17:49:14.474Z,19.90
2022-12-12T17:51:43.661Z,18.33
2022-12-12T17:54:11.464Z,21.77
2022-12-12T17:56:39.951Z,21.57
2022-12-12T17:59:09.560Z,19.80
2022-12-12T18:01:37.669Z,21.30
2022-12-12T18:04:06.173Z,31.70
2022-12-12T18:06:36.061Z,21.70
2022-12-12T18:09:05.863Z,22.13
2022-12-12T18:11:35.681Z,20.37
2022-12-12T18:14:06.289Z,19.17
2022-12-12T18:16:35.033Z,21.43
2022-12-12T18:19:03.318Z,21.63
2022-12-12T18:21:59.882Z,20.27
2022-12-12T18:24:22.820Z,22.63
2022-12-12T18:26:52.826Z,22.30
2022-12-12T18:29:21.657Z,22.67
2022-12-12T18:31:49.956Z,20.93
2022-12-12T18:34:18.127Z,21.40
2022-12-12T18:36:46.080Z,20.70
2022-12-12T18:39:13.876Z,19.03
2022-12-12T18:41:43.214Z,20.07
2022-12-12T18:44:13.427Z,19.30
2022-12-12T18:46:43.376Z,20.23
2022-12-12T18:49:13.857Z,19.03
2022-12-12T18:51:42.210Z,19.87
2022-12-12T18:54:15.013Z,20.30
2022-12-12T18:56:46.616Z,20.97
2022-12-12T18:59:15.373Z,21.40
2022-12-12T19:01:43.749Z,21.87
2022-12-12T19:04:17.471Z,20.17
2022-12-12T19:06:49.088Z,21.53
2022-12-12T19:09:19.229Z,21.93
2022-12-12T19:11:48.697Z,22.10
2022-12-12T19:14:17.704Z,21.13
2022-12-12T19:16:46.249Z,20.67
2022-12-12T19:19:15.103Z,19.87
2022-12-12T19:21:44.283Z,20.90
2022-12-12T19:24:13.324Z,20.37
2022-12-12T19:26:43.695Z,19.73
2022-12-12T19:29:15.113Z,19.97
2022-12-12T19:31:43.312Z,20.97
2022-12-12T19:34:14.135Z,21.53
2022-12-12T19:36:42.445Z,20.33
2022-12-12T19:39:12.194Z,20.03
2022-12-12T19:41:40.389Z,21.50
2022-12-12T19:44:12.416Z,20.57
2022-12-12T19:46:43.045Z,22.63
2022-12-12T19:49:12.617Z,20.97
2022-12-12T19:51:40.668Z,20.57
2022-12-12T19:54:11.095Z,21.33
2022-12-12T19:56:41.770Z,22.60
2022-12-12T19:59:12.427Z,22.33
2022-12-12T20:01:42.252Z,21.83
2022-12-12T20:04:15.386Z,22.83
2022-12-12T20:06:45.917Z,22.80
2022-12-12T20:09:15.035Z,22.13
2022-12-12T20:11:45.178Z,23.10
2022-12-12T20:14:13.955Z,21.73
2022-12-12T20:16:43.674Z,22.17
2022-12-12T20:19:12.183Z,21.53
2022-12-12T20:24:31.908Z,21.83
2022-12-12T20:27:00.403Z,19.80
2022-12-12T20:29:28.766Z,20.93
2022-12-12T20:31:59.721Z,21.73
2022-12-12T20:34:28.118Z,20.27
2022-12-12T20:36:56.087Z,21.33
2022-12-12T20:39:25.061Z,22.47
2022-12-12T20:41:54.308Z,21.50
2022-12-12T20:44:23.309Z,23.07
2022-12-12T20:46:51.221Z,21.20
2022-12-12T20:49:22.453Z,20.90
2022-12-12T20:51:58.459Z,21.77
2022-12-12T20:54:27.800Z,22.53
2022-12-12T20:56:55.968Z,24.07
2022-12-12T20:59:24.056Z,25.37
2022-12-12T21:01:52.184Z,28.07
2022-12-12T21:04:21.915Z,28.03
2022-12-12T21:06:51.244Z,26.83
2022-12-12T21:09:25.756Z,26.07
2022-12-12T21:11:55.794Z,26.20
2022-12-12T21:14:24.801Z,27.30
2022-12-12T21:16:52.937Z,26.97
2022-12-12T21:19:23.377Z,26.00
2022-12-12T21:21:52.072Z,27.57
2022-12-12T21:24:20.511Z,26.00
2022-12-12T21:26:49.122Z,27.20
2022-12-12T21:29:17.352Z,24.30
2022-12-12T21:31:50.765Z,23.57
2022-12-12T21:34:19.958Z,22.47
2022-12-12T21:36:51.289Z,23.40
2022-12-12T21:39:19.262Z,22.27
2022-12-12T21:41:47.332Z,22.53
2022-12-12T21:44:15.544Z,23.30
2022-12-12T21:46:44.264Z,22.83
2022-12-12T21:49:26.678Z,23.67
2022-12-12T21:51:57.648Z,22.23
2022-12-12T21:54:26.219Z,22.97
2022-12-12T21:56:54.084Z,21.70
2022-12-12T21:59:21.901Z,23.70
2022-12-12T22:01:49.848Z,23.73
2022-12-12T22:04:17.918Z,22.30
2022-12-12T22:06:46.635Z,22.87
2022-12-12T22:09:15.923Z,23.90
2022-12-12T22:11:50.787Z,22.13
2022-12-12T22:14:21.021Z,23.93
2022-12-12T22:16:49.061Z,21.80
2022-12-12T22:19:18.360Z,22.67
2022-12-12T22:21:47.543Z,22.07
2022-12-12T22:24:17.381Z,22.33
2022-12-12T22:26:46.905Z,24.03
2022-12-12T22:29:16.673Z,22.33
2022-12-12T22:31:45.320Z,22.47
2022-12-12T22:34:15.522Z,21.90
2022-12-12T22:36:44.643Z,22.57
2022-12-12T22:39:16.420Z,22.20
2022-12-12T22:41:44.562Z,22.20
2022-12-12T22:44:16.030Z,23.43
2022-12-12T22:46:44.663Z,24.23
2022-12-12T22:49:14.201Z,27.37
2022-12-12T22:51:42.821Z,27.23
2022-12-12T22:54:10.652Z,26.80
2022-12-12T22:56:40.667Z,26.87
2022-12-12T22:59:09.230Z,24.83
2022-12-12T23:01:37.237Z,25.33
2022-12-12T23:04:05.463Z,26.70
2022-12-12T23:06:36.632Z,27.13
2022-12-12T23:09:07.186Z,25.27
2022-12-12T23:11:36.676Z,26.07
2022-12-12T23:14:08.214Z,23.87
2022-12-12T23:16:36.969Z,23.20
2022-12-12T23:19:05.822Z,24.60
2022-12-12T23:21:35.116Z,25.50
2022-12-12T23:24:03.385Z,23.77
2022-12-12T23:26:32.191Z,24.33
2022-12-12T23:29:00.420Z,22.50
2022-12-12T23:31:31.796Z,22.20
2022-12-12T23:34:01.736Z,22.57
2022-12-12T23:36:30.376Z,20.97
2022-12-12T23:38:59.335Z,21.40
2022-12-12T23:41:27.683Z,23.17
2022-12-12T23:43:55.837Z,22.87
2022-12-12T23:46:38.079Z,21.63
2022-12-12T23:49:08.737Z,20.97
2022-12-12T23:51:38.454Z,20.53
2022-12-12T23:54:07.853Z,20.57
2022-12-12T23:56:37.762Z,21.10
2022-12-12T23:59:05.979Z,20.97
